createdAt,value
2019-03-06T00:01:54.670Z,76.55
2019-03-06T00:04:24.446Z,76.68
2019-03-06T00:06:54.022Z,76.34
2019-03-06T00:09:23.882Z,76.55
2019-03-06T00:11:53.555Z,76.45
2019-03-06T00:14:23.236Z,77.08
2019-03-06T00:16:53.060Z,76.56
2019-03-06T00:19:22.638Z,77.06
2019-03-06T00:21:52.245Z,77.04
2019-03-06T00:24:21.981Z,77.00
2019-03-06T00:26:51.795Z,77.32
2019-03-06T00:29:22.038Z,77.96
2019-03-06T00:31:51.785Z,78.68
2019-03-06T00:34:21.475Z,78.79
2019-03-06T00:36:51.110Z,78.11
2019-03-06T00:39:20.956Z,78.58
2019-03-06T00:41:50.538Z,79.27
2019-03-06T00:44:20.147Z,78.66
2019-03-06T00:46:50.055Z,77.85
2019-03-06T00:49:19.818Z,78.83
2019-03-06T00:51:49.483Z,77.90
2019-03-06T00:54:19.696Z,77.42
2019-03-06T00:56:49.445Z,78.16
2019-03-06T00:59:19.265Z,78.61
2019-03-06T01:01:49.155Z,78.81
2019-03-06T01:04:19.224Z,78.68
2019-03-06T01:06:48.999Z,79.10
2019-03-06T01:09:18.877Z,78.77
2019-03-06T01:11:48.662Z,79.14
2019-03-06T01:14:18.397Z,78.10
2019-03-06T01:16:48.529Z,78.58
2019-03-06T01:19:18.228Z,77.92
2019-03-06T01:21:47.790Z,77.46
2019-03-06T01:24:17.896Z,77.84
2019-03-06T01:26:47.511Z,78.47
2019-03-06T01:29:17.120Z,78.22
2019-03-06T01:31:46.888Z,78.50
2019-03-06T01:34:18.186Z,78.34
2019-03-06T01:36:56.903Z,78.07
2019-03-06T01:39:47.129Z,78.05
2019-03-06T01:42:36.648Z,77.77
2019-03-06T01:45:08.514Z,78.30
2019-03-06T01:47:39.839Z,78.96
2019-03-06T01:50:11.633Z,79.59
2019-03-06T01:52:41.367Z,80.29
2019-03-06T01:55:14.343Z,79.55
2019-03-06T01:57:44.059Z,78.86
2019-03-06T02:00:18.573Z,79.42
2019-03-06T02:02:48.687Z,78.89
2019-03-06T02:05:18.699Z,79.04
2019-03-06T02:07:48.588Z,79.70
2019-03-06T02:10:18.586Z,78.83
2019-03-06T02:12:49.353Z,78.60
2019-03-06T02:15:22.218Z,77.77
2019-03-06T02:17:51.901Z,77.46
2019-03-06T02:20:21.519Z,78.05
2019-03-06T02:22:51.483Z,78.37
2019-03-06T02:25:21.330Z,78.50
2019-03-06T02:27:51.527Z,77.73
2019-03-06T02:30:24.474Z,77.28
2019-03-06T02:32:54.205Z,78.29
2019-03-06T02:35:23.795Z,78.93
2019-03-06T02:37:53.883Z,79.53
2019-03-06T02:40:23.519Z,79.55
2019-03-06T02:42:53.652Z,79.42
2019-03-06T02:45:23.362Z,79.50
2019-03-06T02:47:52.943Z,79.56
2019-03-06T02:50:23.072Z,79.15
2019-03-06T02:52:52.859Z,78.80
2019-03-06T02:55:23.690Z,78.50
2019-03-06T02:57:55.385Z,78.25
2019-03-06T03:00:29.291Z,78.56
2019-03-06T03:03:00.543Z,78.91
2019-03-06T03:05:31.971Z,78.69
2019-03-06T03:08:01.743Z,78.76
2019-03-06T03:10:31.435Z,78.14
2019-03-06T03:13:02.080Z,78.23
2019-03-06T03:15:31.680Z,78.06
2019-03-06T03:18:01.436Z,78.78
2019-03-06T03:20:32.322Z,78.61
2019-03-06T03:23:02.076Z,78.21
2019-03-06T03:25:31.845Z,78.97
2019-03-06T03:28:01.684Z,79.43
2019-03-06T03:30:31.369Z,79.56
2019-03-06T03:33:01.074Z,79.92
2019-03-06T03:35:31.457Z,80.67
2019-03-06T03:38:01.228Z,79.92
2019-03-06T03:40:30.922Z,80.00
2019-03-06T03:43:00.561Z,79.75
2019-03-06T03:45:30.224Z,79.62
2019-03-06T03:47:59.950Z,79.35
2019-03-06T03:50:29.850Z,80.17
2019-03-06T03:52:59.992Z,79.66
2019-03-06T03:55:32.217Z,79.98
2019-03-06T03:58:01.946Z,80.30
2019-03-06T04:00:32.079Z,81.00
2019-03-06T04:03:01.779Z,80.88
2019-03-06T04:05:31.517Z,80.46
2019-03-06T04:08:01.232Z,80.31
2019-03-06T04:10:32.382Z,80.42
2019-03-06T04:13:02.030Z,80.68
2019-03-06T04:15:31.670Z,80.04
2019-03-06T04:18:01.372Z,80.91
2019-03-06T04:20:31.523Z,80.25
2019-03-06T04:23:01.280Z,80.39
2019-03-06T04:25:31.275Z,80.56
2019-03-06T04:28:00.859Z,80.42
2019-03-06T04:30:30.586Z,79.78
2019-03-06T04:33:00.228Z,79.75
2019-03-06T04:35:30.101Z,79.39
2019-03-06T04:38:00.192Z,78.52
2019-03-06T04:40:30.022Z,78.65
2019-03-06T04:43:00.549Z,79.48
2019-03-06T04:45:30.429Z,80.27
2019-03-06T04:48:00.146Z,80.64
2019-03-06T04:50:30.154Z,80.71
2019-03-06T04:52:59.881Z,80.75
2019-03-06T04:55:29.748Z,80.72
2019-03-06T04:58:01.421Z,80.26
2019-03-06T05:00:31.585Z,79.48
2019-03-06T05:03:01.589Z,78.63
2019-03-06T05:05:31.727Z,78.75
2019-03-06T05:08:01.466Z,78.86
2019-03-06T05:10:31.085Z,78.44
2019-03-06T05:13:00.784Z,78.51
2019-03-06T05:15:30.643Z,80.13
2019-03-06T05:18:09.606Z,80.73
2019-03-06T05:20:39.318Z,80.23
2019-03-06T05:23:09.056Z,79.91
2019-03-06T05:25:38.768Z,79.89
2019-03-06T05:28:08.423Z,79.49
2019-03-06T05:30:38.049Z,79.77
2019-03-06T05:33:12.611Z,80.19
2019-03-06T05:36:01.902Z,80.24
2019-03-06T05:38:44.949Z,80.58
2019-03-06T05:41:14.611Z,80.33
2019-03-06T05:43:44.262Z,80.55
2019-03-06T05:46:14.283Z,79.84
2019-03-06T05:48:44.227Z,79.12
2019-03-06T05:51:13.851Z,78.87
2019-03-06T05:53:43.994Z,77.83
2019-03-06T05:56:13.696Z,77.86
2019-03-06T05:58:43.480Z,78.90
2019-03-06T06:01:13.217Z,78.78
2019-03-06T06:03:42.797Z,79.85
2019-03-06T06:06:12.505Z,78.18
2019-03-06T06:08:42.269Z,78.15
2019-03-06T06:11:11.914Z,78.83
2019-03-06T06:13:41.740Z,79.24
2019-03-06T06:16:11.996Z,78.81
2019-03-06T06:18:41.904Z,79.17
2019-03-06T06:21:21.969Z,79.56
2019-03-06T06:23:59.243Z,79.72
2019-03-06T06:26:30.484Z,80.23
2019-03-06T06:29:00.313Z,80.12
2019-03-06T06:31:29.974Z,80.92
2019-03-06T06:34:02.485Z,80.64
2019-03-06T06:36:32.981Z,79.37
2019-03-06T06:39:02.570Z,78.87
2019-03-06T06:41:32.437Z,78.74
2019-03-06T06:44:02.169Z,78.22
2019-03-06T06:46:31.860Z,79.15
2019-03-06T06:49:03.547Z,78.79
2019-03-06T06:51:55.496Z,78.89
2019-03-06T06:54:53.845Z,78.90
2019-03-06T06:57:57.796Z,78.96
2019-03-06T07:01:15.707Z,78.98
2019-03-06T07:04:10.556Z,79.63
2019-03-06T07:06:41.877Z,79.99
2019-03-06T07:09:29.729Z,79.57
2019-03-06T07:12:04.885Z,78.86
2019-03-06T07:14:42.286Z,78.12
2019-03-06T07:17:13.932Z,77.76
2019-03-06T07:19:45.119Z,78.37
2019-03-06T07:22:19.380Z,78.83
2019-03-06T07:25:02.891Z,78.04
2019-03-06T07:27:34.648Z,76.85
2019-03-06T07:30:21.883Z,77.22
2019-03-06T07:33:02.146Z,76.42
2019-03-06T07:36:10.054Z,75.88
2019-03-06T07:38:40.180Z,75.16
2019-03-06T07:41:09.619Z,75.54
2019-03-06T07:43:45.238Z,75.78
2019-03-06T07:46:17.240Z,75.79
2019-03-06T07:48:51.140Z,75.47
2019-03-06T07:51:38.431Z,75.64
2019-03-06T07:54:29.263Z,75.11
2019-03-06T07:57:11.241Z,75.30
2019-03-06T07:59:42.324Z,74.96
2019-03-06T08:02:45.141Z,77.12
2019-03-06T08:05:15.285Z,77.37
2019-03-06T08:07:46.391Z,78.12
2019-03-06T08:10:19.252Z,77.35
2019-03-06T08:12:53.699Z,77.67
2019-03-06T08:15:25.237Z,77.42
2019-03-06T08:18:04.123Z,78.76
2019-03-06T08:20:41.570Z,78.41
2019-03-06T08:23:11.038Z,78.30
2019-03-06T08:25:42.213Z,77.59
2019-03-06T08:28:12.863Z,77.26
2019-03-06T08:30:57.128Z,77.86
2019-03-06T08:33:27.829Z,77.40
2019-03-06T08:35:57.633Z,75.24
2019-03-06T08:38:28.015Z,75.42
2019-03-06T08:41:04.306Z,75.40
2019-03-06T08:43:31.183Z,74.73
2019-03-06T08:46:00.912Z,75.02
2019-03-06T08:48:33.560Z,74.69
2019-03-06T08:51:06.236Z,73.86
2019-03-06T08:53:43.520Z,73.47
2019-03-06T08:56:17.158Z,73.79
2019-03-06T08:58:52.878Z,73.27
2019-03-06T09:01:42.991Z,73.58
2019-03-06T09:04:21.153Z,73.55
2019-03-06T09:07:08.182Z,73.65
2019-03-06T09:09:44.003Z,73.21
2019-03-06T09:12:32.647Z,73.31
2019-03-06T09:15:08.061Z,72.80
2019-03-06T09:17:55.510Z,72.49
2019-03-06T09:20:37.341Z,71.46
2019-03-06T09:23:26.444Z,71.76
2019-03-06T09:26:11.354Z,70.98
2019-03-06T09:29:01.338Z,71.14
2019-03-06T09:31:49.486Z,71.74
2019-03-06T09:34:23.822Z,71.43
2019-03-06T09:37:02.777Z,71.10
2019-03-06T09:39:38.638Z,71.98
2019-03-06T09:42:10.477Z,70.75
2019-03-06T09:44:50.819Z,69.27
2019-03-06T09:47:22.471Z,69.23
2019-03-06T09:49:58.293Z,68.56
2019-03-06T09:52:37.181Z,67.45
2019-03-06T09:55:21.658Z,66.34
2019-03-06T09:57:53.065Z,66.02
2019-03-06T10:00:24.625Z,64.63
2019-03-06T10:03:06.781Z,64.47
2019-03-06T10:05:41.347Z,64.36
2019-03-06T10:08:12.904Z,62.25
2019-03-06T10:10:47.740Z,62.30
2019-03-06T10:13:28.061Z,60.15
2019-03-06T10:16:03.551Z,61.83
2019-03-06T10:18:36.252Z,60.59
2019-03-06T10:21:06.834Z,58.64
2019-03-06T10:23:38.106Z,58.72
2019-03-06T10:26:08.130Z,59.48
2019-03-06T10:28:38.525Z,60.37
2019-03-06T10:31:09.504Z,59.20
2019-03-06T10:33:41.528Z,57.94
2019-03-06T10:36:12.227Z,56.37
2019-03-06T10:38:42.134Z,53.93
2019-03-06T10:41:13.494Z,54.14
2019-03-06T10:43:49.055Z,53.58
2019-03-06T10:46:15.585Z,53.12
2019-03-06T10:48:48.446Z,52.99
2019-03-06T10:51:19.304Z,53.72
2019-03-06T10:53:49.479Z,53.73
2019-03-06T10:56:19.973Z,51.89
2019-03-06T10:58:49.929Z,52.31
2019-03-06T11:01:21.450Z,50.93
2019-03-06T11:03:56.872Z,50.69
2019-03-06T11:06:26.704Z,48.69
2019-03-06T11:08:56.509Z,48.37
2019-03-06T11:11:26.720Z,50.13
2019-03-06T11:14:03.380Z,50.47
2019-03-06T11:16:29.604Z,50.13
2019-03-06T11:19:00.592Z,50.16
2019-03-06T11:21:30.517Z,52.38
2019-03-06T11:24:02.065Z,51.50
2019-03-06T11:26:33.875Z,50.60
2019-03-06T11:29:04.944Z,51.72
2019-03-06T11:31:35.341Z,51.24
2019-03-06T11:34:07.374Z,51.98
2019-03-06T11:36:37.810Z,50.90
2019-03-06T11:39:12.812Z,52.74
2019-03-06T11:41:43.778Z,55.01
2019-03-06T11:44:14.232Z,55.74
2019-03-06T11:46:44.927Z,54.93
2019-03-06T11:49:17.962Z,54.55
2019-03-06T11:51:47.853Z,55.74
2019-03-06T11:54:18.050Z,54.59
2019-03-06T11:56:47.921Z,54.93
2019-03-06T11:59:18.268Z,54.46
2019-03-06T12:01:51.875Z,56.96
2019-03-06T12:04:22.387Z,57.38
2019-03-06T12:06:52.340Z,56.50
2019-03-06T12:09:30.093Z,56.39
2019-03-06T12:12:00.104Z,56.76
2019-03-06T12:14:29.860Z,56.16
2019-03-06T12:16:59.479Z,56.14
2019-03-06T12:19:29.210Z,56.19
2019-03-06T12:21:59.686Z,57.16
2019-03-06T12:24:29.414Z,57.14
2019-03-06T12:26:59.274Z,56.55
2019-03-06T12:29:28.978Z,55.87
2019-03-06T12:32:00.747Z,57.17
2019-03-06T12:34:30.649Z,57.96
2019-03-06T12:37:00.903Z,57.44
2019-03-06T12:39:30.626Z,58.31
2019-03-06T12:42:00.282Z,59.38
2019-03-06T12:44:29.866Z,60.09
2019-03-06T12:46:59.805Z,61.02
2019-03-06T12:49:29.548Z,61.78
2019-03-06T12:51:59.247Z,61.42
2019-03-06T12:54:29.050Z,61.29
2019-03-06T12:56:59.065Z,60.71
2019-03-06T12:59:28.980Z,60.35
2019-03-06T13:02:00.202Z,61.59
2019-03-06T13:04:32.891Z,60.94
2019-03-06T13:07:02.421Z,61.29
2019-03-06T13:09:32.917Z,61.86
2019-03-06T13:12:02.652Z,63.05
2019-03-06T13:14:32.322Z,63.00
2019-03-06T13:17:02.056Z,63.57
2019-03-06T13:19:32.412Z,62.96
2019-03-06T13:22:10.925Z,62.54
2019-03-06T13:24:33.509Z,62.48
2019-03-06T13:27:03.581Z,62.98
2019-03-06T13:29:33.252Z,62.96
2019-03-06T13:32:11.398Z,63.14
2019-03-06T13:34:35.085Z,63.26
2019-03-06T13:37:05.439Z,62.68
2019-03-06T13:39:35.626Z,62.57
2019-03-06T13:42:05.333Z,62.72
2019-03-06T13:44:35.244Z,62.20
2019-03-06T13:47:06.181Z,63.71
2019-03-06T13:49:35.700Z,63.95
2019-03-06T13:52:05.418Z,63.39
2019-03-06T13:54:35.343Z,62.38
2019-03-06T13:57:05.158Z,62.68
2019-03-06T13:59:34.841Z,62.66
2019-03-06T14:02:04.888Z,62.43
2019-03-06T14:04:34.422Z,62.52
2019-03-06T14:07:04.379Z,62.55
2019-03-06T14:09:38.489Z,62.17
2019-03-06T14:12:08.402Z,62.44
2019-03-06T14:14:38.109Z,61.76
2019-03-06T14:17:08.619Z,62.61
2019-03-06T14:19:38.229Z,62.24
2019-03-06T14:22:08.360Z,62.23
2019-03-06T14:24:38.521Z,62.39
2019-03-06T14:27:09.157Z,62.35
2019-03-06T14:29:38.846Z,62.05
2019-03-06T14:32:14.657Z,62.32
2019-03-06T14:34:40.791Z,62.75
2019-03-06T14:37:10.709Z,62.36
2019-03-06T14:39:40.389Z,62.24
2019-03-06T14:42:10.071Z,62.11
2019-03-06T14:44:39.825Z,61.52
2019-03-06T14:47:10.080Z,61.38
2019-03-06T14:49:39.621Z,61.15
2019-03-06T14:52:09.193Z,61.17
2019-03-06T14:54:38.935Z,61.45
2019-03-06T14:57:08.913Z,61.64
2019-03-06T14:59:38.505Z,61.58
2019-03-06T15:02:08.453Z,61.73
2019-03-06T15:04:40.508Z,60.96
2019-03-06T15:07:10.100Z,60.95
2019-03-06T15:09:39.852Z,61.78
2019-03-06T15:12:09.361Z,61.97
2019-03-06T15:14:39.208Z,61.36
2019-03-06T15:17:10.780Z,60.61
2019-03-06T15:19:40.385Z,61.34
2019-03-06T15:22:10.147Z,61.94
2019-03-06T15:24:41.810Z,62.05
2019-03-06T15:27:12.122Z,61.85
2019-03-06T15:29:42.130Z,61.10
2019-03-06T15:32:13.813Z,61.17
2019-03-06T15:34:44.174Z,61.20
2019-03-06T15:37:14.172Z,61.07
2019-03-06T15:39:48.586Z,60.71
2019-03-06T15:42:15.814Z,61.97
2019-03-06T15:44:45.394Z,61.99
2019-03-06T15:47:16.243Z,62.27
2019-03-06T15:49:47.485Z,62.52
2019-03-06T15:52:17.796Z,62.47
2019-03-06T15:54:47.908Z,63.16
2019-03-06T15:57:18.083Z,63.22
2019-03-06T15:59:47.998Z,63.68
2019-03-06T16:02:18.490Z,63.51
2019-03-06T16:04:48.495Z,63.37
2019-03-06T16:07:18.987Z,62.99
2019-03-06T16:09:48.904Z,63.77
2019-03-06T16:12:18.808Z,64.21
2019-03-06T16:14:50.298Z,63.92
2019-03-06T16:17:22.031Z,63.76
2019-03-06T16:19:51.702Z,64.14
2019-03-06T16:22:21.301Z,63.44
2019-03-06T16:24:50.988Z,63.10
2019-03-06T16:27:20.596Z,62.91
2019-03-06T16:29:50.128Z,62.57
2019-03-06T16:32:20.187Z,62.31
2019-03-06T16:34:50.252Z,62.66
2019-03-06T16:37:19.979Z,62.83
2019-03-06T16:39:51.791Z,62.60
2019-03-06T16:42:21.507Z,63.19
2019-03-06T16:44:52.945Z,62.84
2019-03-06T16:47:24.102Z,62.97
2019-03-06T16:49:53.983Z,63.41
2019-03-06T16:52:23.895Z,64.03
2019-03-06T16:54:54.492Z,63.63
2019-03-06T16:57:24.560Z,64.11
2019-03-06T16:59:55.413Z,63.25
2019-03-06T17:02:25.438Z,63.04
2019-03-06T17:04:55.270Z,64.47
2019-03-06T17:07:26.472Z,64.90
2019-03-06T17:09:57.249Z,64.01
2019-03-06T17:12:30.677Z,63.97
2019-03-06T17:15:00.795Z,64.96
2019-03-06T17:17:30.463Z,64.71
2019-03-06T17:20:00.141Z,65.48
2019-03-06T17:22:30.491Z,66.76
2019-03-06T17:25:01.811Z,67.16
2019-03-06T17:27:32.491Z,67.38
2019-03-06T17:30:02.179Z,68.38
2019-03-06T17:32:34.028Z,68.65
2019-03-06T17:35:04.138Z,69.12
2019-03-06T17:37:36.548Z,69.90
2019-03-06T17:40:08.882Z,70.42
2019-03-06T17:42:38.738Z,71.02
2019-03-06T17:45:09.154Z,71.22
2019-03-06T17:47:39.519Z,71.70
2019-03-06T17:50:12.778Z,72.71
2019-03-06T17:52:42.469Z,73.43
2019-03-06T17:55:13.036Z,73.16
2019-03-06T17:57:43.256Z,74.56
2019-03-06T18:00:19.134Z,75.04
2019-03-06T18:02:49.149Z,74.57
2019-03-06T18:05:19.069Z,75.30
2019-03-06T18:07:50.088Z,75.34
2019-03-06T18:10:22.133Z,76.71
2019-03-06T18:12:53.533Z,76.10
2019-03-06T18:15:23.707Z,76.07
2019-03-06T18:17:53.754Z,75.96
2019-03-06T18:20:23.469Z,75.24
2019-03-06T18:22:55.124Z,75.62
2019-03-06T18:25:26.561Z,75.19
2019-03-06T18:27:57.722Z,75.54
2019-03-06T18:30:28.073Z,76.45
2019-03-06T18:32:57.758Z,76.59
2019-03-06T18:35:30.931Z,77.60
2019-03-06T18:38:00.616Z,77.71
2019-03-06T18:40:30.970Z,77.26
2019-03-06T18:43:00.996Z,78.13
2019-03-06T18:45:32.431Z,78.20
2019-03-06T18:48:02.097Z,78.62
2019-03-06T18:50:33.921Z,79.54
2019-03-06T18:53:03.820Z,80.26
2019-03-06T18:55:33.827Z,78.44
2019-03-06T18:58:05.628Z,79.88
2019-03-06T19:00:35.342Z,79.14
2019-03-06T19:03:05.746Z,79.22
2019-03-06T19:05:37.011Z,79.27
2019-03-06T19:08:06.997Z,78.84
2019-03-06T19:10:36.987Z,79.50
2019-03-06T19:13:06.807Z,79.69
2019-03-06T19:15:36.574Z,78.53
2019-03-06T19:18:06.315Z,78.45
2019-03-06T19:20:36.093Z,77.80
2019-03-06T19:23:05.987Z,77.35
2019-03-06T19:25:35.663Z,77.55
2019-03-06T19:28:07.496Z,77.43
2019-03-06T19:30:37.170Z,77.36
2019-03-06T19:33:07.015Z,77.57
2019-03-06T19:35:37.004Z,77.09
2019-03-06T19:38:07.132Z,77.20
2019-03-06T19:40:36.744Z,77.01
2019-03-06T19:43:06.512Z,77.06
2019-03-06T19:45:36.161Z,77.21
2019-03-06T19:48:06.177Z,77.51
2019-03-06T19:50:36.155Z,77.75
2019-03-06T19:53:06.114Z,77.39
2019-03-06T19:55:37.304Z,76.70
2019-03-06T19:58:14.121Z,76.27
2019-03-06T20:00:43.883Z,76.64
2019-03-06T20:03:13.492Z,76.51
2019-03-06T20:05:43.948Z,77.33
2019-03-06T20:08:16.389Z,77.56
2019-03-06T20:10:46.164Z,77.84
2019-03-06T20:13:16.042Z,78.07
2019-03-06T20:15:45.774Z,78.10
2019-03-06T20:18:15.418Z,77.88
2019-03-06T20:20:46.330Z,78.32
2019-03-06T20:23:16.069Z,78.31
2019-03-06T20:25:45.902Z,77.99
2019-03-06T20:28:15.593Z,78.60
2019-03-06T20:30:45.557Z,78.06
2019-03-06T20:33:16.795Z,77.98
2019-03-06T20:35:46.900Z,78.54
2019-03-06T20:38:16.715Z,78.82
2019-03-06T20:40:46.622Z,78.32
2019-03-06T20:43:16.382Z,78.08
2019-03-06T20:45:45.986Z,78.04
2019-03-06T20:48:15.741Z,78.87
2019-03-06T20:50:45.493Z,78.71
2019-03-06T20:53:15.104Z,77.83
2019-03-06T20:55:44.710Z,77.74
2019-03-06T20:58:14.600Z,78.03
2019-03-06T21:00:44.295Z,77.42
2019-03-06T21:03:18.655Z,77.68
2019-03-06T21:05:48.990Z,76.98
2019-03-06T21:08:19.336Z,76.63
2019-03-06T21:10:49.008Z,77.06
2019-03-06T21:13:18.665Z,77.21
2019-03-06T21:15:48.602Z,77.30
2019-03-06T21:18:18.281Z,76.94
2019-03-06T21:20:48.062Z,76.71
2019-03-06T21:23:18.347Z,76.22
2019-03-06T21:25:48.329Z,76.62
2019-03-06T21:28:18.412Z,76.85
2019-03-06T21:30:48.052Z,76.71
2019-03-06T21:33:18.135Z,76.86
2019-03-06T21:35:47.879Z,76.25
2019-03-06T21:38:17.613Z,76.88
2019-03-06T21:40:47.320Z,76.31
2019-03-06T21:43:17.095Z,76.68
2019-03-06T21:45:46.852Z,77.07
2019-03-06T21:48:16.755Z,76.69
2019-03-06T21:50:46.535Z,77.33
2019-03-06T21:53:16.358Z,77.46
2019-03-06T21:55:48.148Z,77.53
2019-03-06T21:58:36.853Z,76.89
2019-03-06T22:01:06.624Z,76.91
2019-03-06T22:03:37.562Z,76.84
2019-03-06T22:06:08.675Z,76.65
2019-03-06T22:08:38.656Z,76.64
2019-03-06T22:11:11.189Z,76.90
2019-03-06T22:13:41.017Z,75.83
2019-03-06T22:16:10.941Z,75.20
2019-03-06T22:18:40.651Z,75.58
2019-03-06T22:21:12.019Z,75.68
2019-03-06T22:23:41.812Z,75.68
2019-03-06T22:26:11.587Z,74.94
2019-03-06T22:28:41.322Z,75.12
2019-03-06T22:31:11.204Z,74.79
2019-03-06T22:33:41.002Z,74.82
2019-03-06T22:36:10.638Z,75.33
2019-03-06T22:38:40.486Z,74.07
2019-03-06T22:41:10.167Z,73.84
2019-03-06T22:43:40.391Z,74.30
2019-03-06T22:46:10.157Z,74.10
2019-03-06T22:48:39.922Z,73.12
2019-03-06T22:51:09.676Z,72.86
2019-03-06T22:53:39.377Z,73.48
2019-03-06T22:56:09.423Z,73.12
2019-03-06T22:58:39.171Z,72.67
2019-03-06T23:01:16.674Z,72.87
2019-03-06T23:03:47.745Z,71.85
2019-03-06T23:06:17.405Z,71.98
2019-03-06T23:08:47.092Z,72.04
2019-03-06T23:11:16.664Z,72.80
2019-03-06T23:13:46.783Z,72.23
2019-03-06T23:16:16.437Z,72.00
2019-03-06T23:18:46.133Z,71.45
2019-03-06T23:21:15.651Z,71.60
2019-03-06T23:23:45.294Z,72.52
2019-03-06T23:26:15.768Z,72.44
2019-03-06T23:28:45.745Z,72.67
2019-03-06T23:31:15.491Z,72.45
2019-03-06T23:33:45.048Z,72.36
2019-03-06T23:36:14.902Z,72.29
2019-03-06T23:38:44.499Z,72.02
2019-03-06T23:41:14.121Z,71.86
2019-03-06T23:43:43.763Z,72.14
2019-03-06T23:46:13.865Z,72.54
2019-03-06T23:48:43.916Z,71.61
2019-03-06T23:51:15.334Z,71.14
2019-03-06T23:53:49.611Z,71.02
2019-03-06T23:56:19.405Z,70.83
2019-03-06T23:58:48.999Z,70.65
